Weather at University Trauma Hospital Heliport

Public forecast

Using degrees Celsius for public forecast. Weather courtesy of forecast.io.

Closest aviation weather report (METAR) to University Trauma Hospital Heliport

Closest report is Tirana International Airport Mother Teresa, 5.4 nm (10.1 km) NW.

2024/06/22 08:50 (retrieved 11 minutes ago)

LATI 220850Z VRB02KT CAVOK 34/18 Q1010 NOSIG

Closest aviation forecast (TAF) to University Trauma Hospital Heliport

Closest forecast is Tirana International Airport Mother Teresa, 5.4 nm (10.1 km) NW.

2024/06/22 06:06 (retrieved 3 hours ago)

TAF LATI 220500Z 2206/2306 VRB03KT CAVOK TX38/2213Z TN20/2303Z TEMPO 2210/2216 32010KT